Teignmouth, United Kingdom
Current Conditions -  °F | °C
As of 10:20 AM on Tuesday 21 Oct 2014 (Local Time) from EGTE Reporting Station
Rain Showers Rain Showers  
Wind Chill: 54°   Ceiling: Unl
Heat Index: 54°   Visibility: 6mi
Dew Point: 43°   Wind: 24mph
Humidity: 67%   Direction: 280°W
Pressure: 29.8"   Gusts: 36mph
Location:  50.55°N, 3.5°W
Report Text: EGTE 210920Z 28021G31KT 250V310 9999 VCSH FEW025CB 12/06 Q1009
Loading
Personal Weather Stations






























Interactive Weather Map
Tropical Storm Tracking
New forecast layout! Learn more

10-Day Weather Forecast

Advertisements
Track Severe Weather on mobile